Waterloo Airport
CYKF : now visible

Airfield :











YOU CAN JOIN US ON...

 
LOGIN :

Register | Disclaimer

   EN    FR    IT 

 









Legend :    VFR   Marginal VFR   IFR   Intensive IFR   Very Intensive IFR
Visi :
Ceiling :
>= 8 km
>= 3000ft
5 to 8 km
1000 to 3000 ft
1500m to 5 km
500 to 1000 ft
800 to 1500m
200 to 500 ft
< 800m
< 200 ft
Symbols :   Thunderstorms  Fog  Heavy snow  Heavy precipitations  Wind > 20 kt






- Airport Elevation : 1054 ft
- IATA code : YKF


CYKF - Waterloo

CURRENT METAR :
  • 030100Z AUTO 32012G17KT 9SM CLR 06/M04 A3000 RMK SLP170

EXPIRED METARs :
  • 030000Z AUTO 31014G20KT 9SM CLR 07/M05 A2999 RMK SLP164
  • 022300Z AUTO 31013G21KT 9SM CLR 10/M06 A2997 RMK SLP158

TAF TAF CYKF
Valid from the 03 at 02:00 until the 03 at 14:00 UTC


030138Z 0302/0314 32010G20KT P6SM SKC
BECMG 0304/0306 34008KT
FM030900 34008KT P6SM SCT015
FM031200 34008KT P6SM BKN015 RMK FCST BASED ON AUTO OBS. NXT FCST BY 030800Z



MET'MAP, your aeronautical weather chart ! - Copyright ORBIFLY December 2007 - Disclaimer

ORBIFLY MET'MAP TEAM :

Programming & Development : Alexandra Zaïnal
Concept & original design : Baudouin d'Aumeries
Assistance for programming : Marc-Olivier Méhu
Technical & hardware support : Manuel Goepfert

Contact : metmap@orbifly.com




SOURCES & CREDITS :

   NOAA       Earth
Advisory